Alba, Pennsylvania
Current Conditions -  °F | °C
As of 8:15 PM on Wednesday 26 Nov 2014 (Local Time) from KN38 Reporting Station
NA  
Wind Chill: 19°   Ceiling: NA
Heat Index: 28°   Visibility: 7mi
Dew Point: 27°   Wind: 10mph
Humidity: 93%   Direction: 10°N
Pressure: 29.94"   Gusts: NA
Location:  41.71°N, 76.83°W
Report Text: KN38 270115Z AUTO 01009KT 7SM M02/M03 A2994 RMK AO2 PWINO
Loading
Personal Weather Stations






























Interactive Weather Map New forecast layout! Learn more

10-Day Weather Forecast

Advertisements
Track Severe Weather on mobile